This is the latest recevied weather packets stored in our database for station/object W9KHP-1. If no packets are shown the sender has not sent any weather packets the latest 10 day(s).
| Time | Temp. | Humidity | Pressure | Rain* | Wind** | Luminosity | Snow |
|---|---|---|---|---|---|---|---|
| 1778092514 | 15° C | 67% | 1017.1 hPa | 0 mm | - | 462 W/m² | - |
| 1778092211 | 15° C | 64% | 1017.2 hPa | 0 mm | - | 344 W/m² | - |
| 1778091909 | 15° C | 67% | 1017.3 hPa | 0 mm | - | 328 W/m² | - |
| 1778091606 | 15° C | 62% | 1017.1 hPa | 0 mm | - | 361 W/m² | - |
| 1778091304 | 15° C | 63% | 1017.1 hPa | 0 mm | - | 385 W/m² | - |
| 1778091000 | 15.56° C | 66% | 1017 hPa | 0 mm | - | 522 W/m² | - |
| 1778090697 | 15° C | 65% | 1016.8 hPa | 0 mm | - | 552 W/m² | - |
| 1778090394 | 15.56° C | 67% | 1017 hPa | 0 mm | - | 501 W/m² | - |
| 1778090089 | 15.56° C | 62% | 1017.1 hPa | 0 mm | - | 348 W/m² | - |
| 1778089786 | 15.56° C | 64% | 1016.6 hPa | 0 mm | - | 500 W/m² | - |
| 1778089484 | 15° C | 65% | 1016.6 hPa | 0 mm | - | 489 W/m² | - |
| 1778089180 | 15° C | 65% | 1016.6 hPa | 0 mm | - | 450 W/m² | - |
| 1778088879 | 15° C | 64% | 1016.7 hPa | 0 mm | - | 459 W/m² | - |
| 1778088575 | 15.56° C | 64% | 1016.8 hPa | 0 mm | - | 579 W/m² | - |
| 1778088272 | 15° C | 63% | 1017.1 hPa | 0 mm | - | 465 W/m² | - |
| 1778087969 | 15° C | 69% | 1017.1 hPa | 0 mm | - | 443 W/m² | - |
| 1778087666 | 15° C | 64% | 1017.2 hPa | 0 mm | - | 403 W/m² | - |
| 1778087364 | 15° C | 64% | 1017.3 hPa | 0 mm | - | 445 W/m² | - |
| 1778087060 | 14.44° C | 70% | 1017.2 hPa | 0 mm | - | 450 W/m² | - |
| 1778086759 | 14.44° C | 71% | 1017.4 hPa | 0 mm | - | 363 W/m² | - |
| 1778086457 | 13.89° C | 71% | 1017.6 hPa | 0 mm | - | 383 W/m² | - |
| 1778086153 | 13.89° C | 74% | 1017.3 hPa | 0 mm | - | 405 W/m² | - |
| 1778085849 | 14.44° C | 70% | 1017.4 hPa | 0 mm | - | 352 W/m² | - |
| 1778085547 | 14.44° C | 73% | 1017.3 hPa | 0 mm | - | 584 W/m² | - |
| 1778085241 | 14.44° C | 73% | 1017.4 hPa | 0 mm | - | 484 W/m² | - |
* Rain latest hour (hover to see other rain measurements)
** Current wind speed in m/s (hover to see current wind gust speed)